TAF KBZN
KBZN 081731Z 0818/0924 VRB06KT P6SM BKN080 FM081900 22013G22KT P6SM BKN080 FM082100 24021G31KT P6SM BKN050 FM090000 28017G26KT P6SM VCSH SCT040 BKN050 FM090600 27011G19KT P6SM SCT080=
METAR KBZN
WC KBZN
WS KBZN
WV KBZN